Indianapolis International Airport
KIND : rendu visible

Aérodrome :











RETROUVEZ-NOUS SUR...

 
LOGIN :

S'inscrire | Disclaimer

   EN    FR    IT 

 









Légende :    VFR   VFR Marginal   IFR   IFR Intensif   IFR Très Intensif
Visi : 
Plafond : 
>= 8 km
>= 3000ft
5 à 8 km
1000 à 3000 ft
1500m à 5 km
500 à 1000 ft
800 à 1500m
200 à 500 ft
< 800m
< 200 ft
Symboles :   Orages  Brouillard  Fortes neiges  Fortes précipitations  Vent > 20 kt






- Altitude de l'aérodrome : 797 ft
- Code IATA : IND


KIND - Indianapolis International

DERNIER METAR :
  • 191454Z 13007KT 7SM BKN100 04/02 A2978 RMK AO2 SLP091 T00390017 51008

METARs EXPIRÉS :
  • 191354Z 12006KT 5SM BR FEW030 FEW100 02/01 A2978 RMK AO2 SLP089 T00170006 $
  • 191254Z 10005KT 5SM BR FEW030 FEW110 00/M01 A2978 RMK AO2 SLP089 T00001006 $

TAF KIND
Valide du 19 à 15h jusqu'au 20 à 18h UTC


191450Z 1915/2018 12005KT 5SM BR FEW030 BKN100
FM191800 VRB04KT 5SM BR BKN030 OVC050
TEMPO 1919/1923 3SM -RA BR BKN020
FM200000 VRB03KT P6SM OVC012
FM200200 VRB04KT P6SM OVC007
FM201700 00000KT P6SM BKN030



MET'MAP, la Météo Aéronautique d'un coup d'oeil ! - Copyright ORBIFLY Décembre 2007 - Disclaimer

ORBIFLY MET'MAP TEAM :

Programmation & Développement : Alexandra Zaïnal
Conception & Développement : Baudouin d'Aumeries
Co-Programmation & Développement : Marc-Olivier Méhu
Soutien technique & logistique : Manuel Goepfert

Contact : metmap@orbifly.com




SOURCES & CREDITS :

   NOAA       Earth
Advisory